MapTableWeb Map

Choose a state:
Locations above flood stage
(89 streamgages are currently reporting water levels above the National Weather Service defined flood stage)
USGS
station
ID
USGS station name NWS
flood
stage
(ft)
Most recent
stage
(ft)
Most recent
flow
(cfs)
Historical
peaks
(cfs)
Most recent
local
date/time
NWS
station
ID
08030500Sabine Rv nr Ruliff, TX 24 24.50 19,200   2018-12-17 08:45:00 DWYT2
02171700SANTEE RIVER NR JAMESTOWN, SC 10 17.74 46,800   2018-12-17 10:30:00 JAMS1
02089500NEUSE RIVER AT KINSTON, NC 14 16.70 10,600   2018-12-17 10:15:00 KINN7
02198500SAVANNAH RIVER NEAR CLYO, GA 11 14.96 27,800   2018-12-17 10:15:00 CLYG1
02227500LITTLE SATILLA RIVER NEAR OFFERMAN, GA 9 11.69 5,650   2018-12-17 10:45:00 OFFG1
02359000CHIPOLA RIVER NR ALTHA, FLA. 22 23.02 4,670   2018-12-17 09:00:00 ALTF1
02317620ALAPAHA RIVER NEAR JENNINGS FLA 80 86.59 12,000   2018-12-17 10:00:00 JNAF1
02358700APALACHICOLA RIVER NR BLOUNTSTOWN,FLORIDA 17 20.28 67,700   2018-12-17 09:15:00 BLOF1
02197500SAVANNAH R AT BURTONS FERRY BR NR MILLHAVEN, GA 15 17.37 28,800   2018-12-17 09:45:00 BFYG1
02228000SATILLA RIVER AT ATKINSON, GA 13 14.99 9,300   2018-12-17 10:45:00 ATKG1
13138000EAST FORK BIG WOOD RIVER AT GIMLET ID 7.9 8.00 Ice   2018-12-17 08:15:00 EFGI1
08038000Attoyac Bayou nr Chireno, TX 14 17.05 2,770   2018-12-17 09:30:00 ATBT2
08033000Neches Rv nr Diboll, TX 12 14.23 9,040   2018-12-17 09:15:00 DIBT2
08032500Neches Rv nr Alto, TX 16 16.29 3,250   2018-12-17 09:15:00 ATOT2
07348700Bayou Dorcheat near Springhill, LA 11 14.64 4,710   2018-12-17 09:00:00 SPHL1
08177520Guadalupe Rv nr Bloomington, TX 20 20.09 3,550   2018-12-17 09:00:00 DUPT2
08041700Pine Island Bayou nr Sour Lake, TX 25 25.68 1,850   2018-12-17 09:45:00 SOLT2
08032000Neches Rv nr Neches, TX 12 13.01 1,680   2018-12-17 09:30:00 NCST2
08018500Sabine Rv nr Mineola, TX 14 14.85 1,950   2018-12-17 09:15:00 MLAT2
08067000Trinity Rv at Liberty, TX 26 28.16 40,700   2018-12-17 09:15:00 LBYT2
08067100Trinity Rv nr Moss Bluff, TX 12.2 14.25

 

  2018-12-17 09:30:00 MBFT2
02169625CONGAREE RIVER AT CONGAREE NP NEAR GADSDEN, SC 15 17.49

 

  2018-12-17 10:00:00 GADS1
08013000Calcasieu River nr Glenmora, LA 12 12.16 1,460   2018-12-17 09:45:00 GLML1
02130980BLACK CREEK NEAR QUINBY, SC 10 13.46 2,410   2018-12-17 10:00:00 BCRS1
07362000Ouachita River at Camden, AR 26 32.32 32,500   2018-12-17 09:45:00 CAMA4
02131000PEE DEE RIVER AT PEEDEE, SC 19 22.93 31,000   2018-12-17 10:00:00 PDES1
07349000Bayou Dorcheat near Minden, LA 14 16.55

 

  2018-12-17 09:00:00 MNEL1
02322700ICHETUCKNEE R @ HWY27 NR HILDRETH, FL 19 21.38 208   2018-12-17 10:45:00 ICSF1
02225500OHOOPEE RIVER NEAR REIDSVILLE, GA 11 12.02 3,140   2018-12-17 10:00:00 REDG1
02134170LUMBER RIVER AT LUMBERTON, NC 13 16.82 4,490   2018-12-17 10:45:00 LUMN7
07372200Little River near Rochelle, LA 32 33.26 11,800   2018-12-17 09:30:00 RHLL1
08041780Neches Rv Saltwater Barrier at Beaumont, TX 4 4.28 27,500   2018-12-17 09:15:00 NSBT2
02091500CONTENTNEA CREEK AT HOOKERTON, NC 13 13.99 3,160   2018-12-17 10:00:00 HOKN7
08055500Elm Fk Trinity Rv nr Carrollton, TX 8 8.09 6,300   2018-12-17 09:15:00 CART2
02310747CRYSTAL RIVER AT BAGLEY COVE NEAR CRYSTAL RIVER FL 3 12.81 -3,240   2018-12-17 10:15:00 BGYF1
08040600Neches Rv nr Town Bluff, TX 68 68.53 21,100   2018-12-17 09:00:00 TBFT2
07334800Clear Boggy Creek abv Caney Creek nr Caney, OK 26 26.52 5,280   2018-12-17 08:30:00 CANO2
02135000LITTLE PEE DEE R. AT GALIVANTS FERRY, SC 9 11.05 17,800   2018-12-17 10:00:00 GALS1
02315500SUWANNEE RIVER AT WHITE SPRINGS, FLA. 76 80.74 12,700   2018-12-17 10:30:00 WSPF1
07315700Mud Creek near Courtney, OK 20 23.94 2,730   2018-12-17 09:30:00 CORO2
02224940ALTAMAHA RIVER AT US 221, NR CHARLOTTEVILLE, GA 13 14.70 33,300   2018-12-17 10:45:00 CHRG1
13131000ANTELOPE CREEK NR DARLINGTON, ID 5.6 6.02 Ice   2018-12-17 08:00:00 ACKI1
02326900ST. MARKS RIVER NEAR NEWPORT, FLA. 8 8.60 2,130   2018-12-17 10:00:00 NEPF1
02489500Pearl River near Bogalusa, LA 18 18.17 17,100   2018-12-17 09:00:00 BXAL1
02076000DAN RIVER AT SOUTH BOSTON, VA 19 25.08 27,300   2018-12-17 10:00:00 SBNV2
02244333HAW CREEK AB RUSSELLS LANDING NR ST JOHNS PARK FL 4 4.74 915   2018-12-17 10:30:00 RLGF1
02132000LYNCHES RIVER AT EFFINGHAM, SC 14 15.46 6,700   2018-12-17 10:00:00 EFFS1
03379500LITTLE WABASH RIVER BELOW CLAY CITY, IL 18 21.33 9,400   2018-12-17 09:45:00 CLAI2
02215260OCMULGEE RIVER AT ABBEVILLE, GA 12 13.37 20,600   2018-12-17 10:45:00 ABBG1
07074850White River near Augusta, AR 26 27.89 31,200   2018-12-17 09:00:00 AUGA4
02075500DAN RIVER AT PACES, VA 20 22.61 24,100   2018-12-17 10:45:00 PCEV2
03346500EMBARRAS RIVER AT LAWRENCEVILLE, IL 30 32.67 12,600   2018-12-17 09:45:00 LAWI2
02227270ALABAHA RIVER AT GA 203, NEAR BLACKSHEAR, GA 9 9.30 1,470   2018-12-17 10:30:00 ABAG1
02066000ROANOKE (STAUNTON) RIVER AT RANDOLPH, VA 24 25.35 27,400   2018-12-17 10:45:00 RNDV2
02175000EDISTO RIVER NR GIVHANS, SC 10 10.77 6,020   2018-12-17 10:30:00 GIVS1
02037500JAMES RIVER NEAR RICHMOND, VA 12 13.76 55,500   2018-12-17 10:30:00 RMDV2
02231000ST. MARYS RIVER NEAR MACCLENNY, FL 12 13.05 2,480   2018-12-17 10:45:00 MACF1
07314900Little Wichita Rv abv Henrietta, TX 17 17.78 847   2018-12-17 09:30:00 HTAT2
03365500EAST FORK WHITE RIVER AT SEYMOUR, IN 12 13.91 12,100   2018-12-17 09:45:00 SERI3
02321898SANTA FE RIVER AT O'LENO STATE PARK FLA 43 45.36 2,610   2018-12-17 10:15:00 OLPF1
02320000SUWANNEE RIVER AT LURAVILLE, FLA. 35 35.43 22,200   2018-12-17 10:15:00 LURF1
02328522OCHLOCKONEE RIVER NR CONCORD, FLA. 36 37.01 6,290   2018-12-17 10:00:00 CONF1
08041000Neches Rv at Evadale, TX 17 17.16 22,500   2018-12-17 09:00:00 EVDT2
07018500Big River at Byrnesville, MO 16 17.53 11,300   2018-12-17 09:45:00 BYRM7
02037705JAMES RIVER AT CITY LOCKS AT RICHMOND, VA 8 9.30

 

  2018-12-17 09:54:00 RICV2
03139000Killbuck Creek at Killbuck OH 15 15.83 3,760   2018-12-17 10:00:00 KILO1
01618000POTOMAC RIVER AT SHEPHERDSTOWN, WV 15 20.73 92,500   2018-12-17 10:30:00 SHEW2
01636500SHENANDOAH RIVER AT MILLVILLE, WV 10 11.80 30,900   2018-12-17 10:30:00 MILW2
02226362SATILLA RIVER AT GA 158, NEAR WAYCROSS, GA 14 14.32 3,270   2018-12-17 10:30:00 TMOG1
02327355OCHLOCKONEE RIVER AT GA 188, NEAR COOLIDGE, GA 13 13.33 2,780   2018-12-17 10:30:00 CLDG1
03360730WHITE RIVER NEAR EDWARDSPORT, IN 15 15.73 15,600   2018-12-17 10:30:00 EDWI3
02327500OCHLOCKONEE RIVER NEAR THOMASVILLE, GA 15 15.76 5,740   2018-12-17 10:45:00 TMLG1
03282120KENTUCKY RIVER AT LOCK 12 NEAR IRVINE, KY 21 21.43 32,000   2018-12-17 10:15:00 RAVK2
01644148POTOMAC RIVER AT EDWARDS FERRY NEAR POOLESVILLE,MD 15 20.94

 

  2018-12-17 10:45:00 EDFM2
03374000WHITE RIVER AT PETERSBURG, IN 16 17.51 33,300   2018-12-17 10:30:00 PTRI3
12061500SKOKOMISH RIVER NEAR POTLATCH, WA 16.5 17.26 5,240   2018-12-17 07:30:00 SRPW1
01638500POTOMAC RIVER AT POINT OF ROCKS, MD 16 22.17 141,000   2018-12-17 10:45:00 PORM2
02110704WACCAMAW RIVER AT CONWAY MARINA AT CONWAY, SC 11 11.12 5,740   2018-12-17 10:15:00 CNWS1
02224500OCONEE RIVER NEAR MOUNT VERNON, GA 16 16.62 27,100   2018-12-17 10:00:00 MTVG1
03373980WHITE RIVER ABOVE PETERSBURG, IN 16 17.37 1,500   2018-12-17 10:30:00 PETI3
02136000BLACK RIVER AT KINGSTREE, SC 12 12.27 5,690   2018-12-17 10:00:00 KINS1
02323500SUWANNEE RIVER NEAR WILCOX, FLA. 10 10.10 22,200   2018-12-17 10:30:00 WCXF1
01646500POTOMAC RIVER NEAR WASH, DC LITTLE FALLS PUMP STA 10 11.44 157,000   2018-12-17 10:45:00 BRKM2
06479498SOUTH BRANCH TRIB MUD CR NR RAUVILLE, SD 4 4.83

 

  2018-12-17 09:00:00 RVLS2
02108000NORTHEAST CAPE FEAR RIVER NEAR CHINQUAPIN, NC 13 13.93 6,010   2018-12-17 10:30:00 CHIN7
01647600POTOMAC RIVER AT WISCONSIN AVE, WASHINGTON, DC 6 6.06

 

  2018-12-17 10:54:00 GTND2
02108566NORTHEAST CAPE FEAR R NR BURGAW, NC 10 10.10 998   2018-12-17 10:30:00 BGWN7
03374100WHITE RIVER AT HAZLETON, IN 16 16.13 28,200   2018-12-17 10:45:00 HZNI3
06140500Milk River at Havre MT 10 16.93 Ice   2018-12-17 04:45:00 HVRM8